Time;durP1;ratioP1;P1;durP2;ratioP2;P2;SDS_P1;SDS_P2;PMS_P1;PMS_P2;Temp;Humidity;BMP_temperature;BMP_pressure;BME280_temperature;BME280_humidity;BME280_pressure;Samples;Min_cycle;Max_cycle;Signal;HPM_P1;HPM_P2
2021/06/18 00:00:12;;;;;;;1.47;0.90;;;25.70;87.20;;;;;;5110681;28;20506;-81
2021/06/18 00:02:39;;;;;;;1.47;0.90;;;25.70;87.30;;;;;;5097531;28;20523;-82
2021/06/18 00:05:07;;;;;;;1.50;0.90;;;25.60;87.40;;;;;;5109777;28;20775;-82
2021/06/18 00:07:34;;;;;;;1.40;0.80;;;25.60;87.50;;;;;;5099775;27;20506;-83
2021/06/18 00:10:05;;;;;;;1.40;0.90;;;25.60;88.10;;;;;;5109909;28;20501;-82
2021/06/18 00:12:32;;;;;;;1.43;0.80;;;25.50;87.80;;;;;;5114312;27;20884;-80
2021/06/18 00:15:00;;;;;;;1.47;0.90;;;25.50;88.10;;;;;;5110746;27;20463;-80
2021/06/18 00:17:27;;;;;;;1.47;0.80;;;25.50;87.80;;;;;;5096898;28;20536;-81
2021/06/18 00:19:54;;;;;;;1.50;0.90;;;25.50;87.60;;;;;;5111464;28;20486;-81
2021/06/18 00:22:21;;;;;;;1.47;0.90;;;25.50;87.60;;;;;;5113403;27;20546;-81
2021/06/18 00:24:48;;;;;;;1.50;0.90;;;25.50;88.10;;;;;;5114963;27;20481;-81
2021/06/18 00:27:26;;;;;;;1.50;0.90;;;25.50;87.40;;;;;;5109552;27;20503;-81
2021/06/18 00:29:52;;;;;;;1.40;0.80;;;25.40;88.00;;;;;;5115163;27;20478;-81
2021/06/18 00:32:20;;;;;;;1.50;0.90;;;25.40;88.10;;;;;;5112754;27;20561;-81
2021/06/18 00:34:47;;;;;;;1.50;0.80;;;25.40;88.20;;;;;;5116148;27;20676;-81
2021/06/18 00:37:14;;;;;;;1.50;0.90;;;25.30;88.30;;;;;;5112257;27;20489;-81
2021/06/18 00:39:41;;;;;;;1.50;0.90;;;25.20;88.50;;;;;;5116688;27;20492;-80
2021/06/18 00:42:09;;;;;;;1.40;0.90;;;25.20;88.60;;;;;;5111890;27;20535;-82
2021/06/18 00:44:37;;;;;;;1.50;0.90;;;25.10;89.10;;;;;;5116202;28;20458;-83
2021/06/18 00:47:04;;;;;;;1.47;0.90;;;25.10;89.20;;;;;;5112326;27;20474;-82
2021/06/18 00:49:32;;;;;;;1.40;0.90;;;25.00;89.10;;;;;;5116349;28;20592;-80
2021/06/18 00:51:58;;;;;;;1.50;0.90;;;25.00;89.00;;;;;;5105408;28;20882;-81
2021/06/18 00:54:31;;;;;;;1.50;0.90;;;25.00;89.30;;;;;;5109902;28;20490;-80
2021/06/18 00:57:00;;;;;;;1.50;1.00;;;24.90;89.20;;;;;;5111577;27;20535;-83
2021/06/18 00:59:29;;;;;;;1.50;0.90;;;24.90;89.00;;;;;;5118507;28;20480;-81
2021/06/18 01:01:57;;;;;;;1.43;0.90;;;24.90;89.60;;;;;;5102344;28;20471;-82
2021/06/18 01:04:27;;;;;;;1.50;0.90;;;24.80;89.50;;;;;;5111632;28;20708;-82
2021/06/18 01:07:00;;;;;;;1.50;0.90;;;24.80;89.60;;;;;;5110106;28;20474;-82
2021/06/18 01:09:30;;;;;;;1.47;0.90;;;24.70;90.00;;;;;;5118690;28;20503;-83
2021/06/18 01:12:01;;;;;;;1.50;0.90;;;24.70;89.30;;;;;;5111139;27;20470;-77
2021/06/18 01:14:36;;;;;;;1.50;0.90;;;24.70;90.10;;;;;;5115984;28;20451;-80
2021/06/18 01:17:12;;;;;;;1.50;0.90;;;24.60;90.30;;;;;;5093430;28;20706;-84
2021/06/18 01:19:58;;;;;;;1.50;0.90;;;24.60;90.00;;;;;;5110100;28;20918;-84
2021/06/18 01:22:29;;;;;;;1.50;0.90;;;24.60;90.30;;;;;;5098550;28;20475;-84
2021/06/18 01:25:03;;;;;;;1.50;0.90;;;24.60;89.80;;;;;;5113859;28;20455;-84
2021/06/18 01:27:53;;;;;;;1.47;0.90;;;24.60;89.90;;;;;;5100033;28;20490;-83
2021/06/18 01:30:23;;;;;;;1.50;0.90;;;24.60;90.20;;;;;;5114059;28;20483;-83
2021/06/18 01:33:01;;;;;;;1.50;0.90;;;24.50;90.40;;;;;;5102144;27;20559;-84
2021/06/18 01:35:33;;;;;;;1.50;0.90;;;24.50;90.40;;;;;;5115681;28;20512;-85
2021/06/18 01:38:02;;;;;;;1.50;0.90;;;24.50;90.50;;;;;;5102180;28;20480;-79
2021/06/18 01:40:31;;;;;;;1.50;0.90;;;24.40;91.00;;;;;;5116361;28;21029;-83
2021/06/18 01:43:03;;;;;;;1.43;0.90;;;24.40;90.70;;;;;;5104220;27;20638;-84
2021/06/18 01:45:34;;;;;;;1.50;0.90;;;24.40;90.70;;;;;;5099832;28;20466;-86
2021/06/18 01:48:06;;;;;;;1.50;0.90;;;24.30;91.00;;;;;;5103446;27;20958;-83
2021/06/18 01:50:34;;;;;;;1.50;0.90;;;24.30;91.50;;;;;;5114306;28;20470;-83
2021/06/18 01:53:05;;;;;;;1.50;0.90;;;24.30;91.20;;;;;;5119843;27;20471;-84
2021/06/18 01:55:34;;;;;;;1.50;0.90;;;24.30;91.20;;;;;;5114202;28;20462;-84
2021/06/18 01:58:04;;;;;;;1.50;0.90;;;24.30;91.00;;;;;;5117398;27;20478;-84
2021/06/18 02:00:37;;;;;;;1.47;0.90;;;24.30;91.20;;;;;;5113145;28;20447;-84
2021/06/18 02:03:09;;;;;;;1.50;0.90;;;24.30;90.60;;;;;;5118877;27;20467;-82
2021/06/18 02:05:38;;;;;;;1.50;0.90;;;24.30;91.00;;;;;;5114382;28;20456;-82
2021/06/18 02:08:07;;;;;;;1.50;0.90;;;24.30;91.00;;;;;;5117263;27;20541;-82
2021/06/18 02:10:37;;;;;;;1.50;0.90;;;24.30;91.00;;;;;;5114254;28;20463;-82
2021/06/18 02:13:05;;;;;;;1.50;0.90;;;24.20;91.00;;;;;;5108891;27;20504;-84
2021/06/18 02:15:39;;;;;;;1.47;0.90;;;24.20;90.90;;;;;;5117429;28;20463;-83
2021/06/18 02:18:10;;;;;;;1.50;0.90;;;24.20;91.30;;;;;;5113400;27;20529;-83
2021/06/18 02:20:38;;;;;;;1.47;0.90;;;24.20;91.20;;;;;;5116165;28;20535;-83
2021/06/18 02:23:07;;;;;;;1.47;0.90;;;24.20;90.90;;;;;;5118126;27;20522;-83
2021/06/18 02:25:40;;;;;;;1.50;0.90;;;24.20;91.20;;;;;;5115767;28;20823;-83
2021/06/18 02:28:09;;;;;;;1.47;0.90;;;24.10;91.30;;;;;;5105564;27;20586;-83
2021/06/18 02:30:38;;;;;;;1.47;0.87;;;24.10;90.90;;;;;;5115055;28;20555;-82
2021/06/18 02:33:11;;;;;;;1.50;0.90;;;24.10;91.60;;;;;;5116150;27;20858;-84
2021/06/18 02:35:38;;;;;;;1.50;0.90;;;24.10;91.40;;;;;;5114469;28;20464;-83
2021/06/18 02:38:06;;;;;;;1.50;0.90;;;24.10;91.50;;;;;;5105317;27;20483;-83
2021/06/18 02:40:33;;;;;;;1.47;0.90;;;24.00;91.60;;;;;;5114569;28;20464;-84
2021/06/18 02:43:02;;;;;;;1.50;0.90;;;24.00;91.40;;;;;;5117711;27;20879;-84
2021/06/18 02:45:37;;;;;;;1.50;0.90;;;24.00;92.00;;;;;;5122582;28;20542;-84
2021/06/18 02:48:09;;;;;;;1.43;0.90;;;23.90;91.80;;;;;;5121098;27;20631;-84
2021/06/18 02:50:40;;;;;;;1.50;0.90;;;23.90;92.00;;;;;;5115449;28;20470;-83
2021/06/18 02:53:18;;;;;;;1.50;0.87;;;23.90;92.80;;;;;;5107534;27;20487;-83
2021/06/18 02:55:53;;;;;;;1.43;0.90;;;23.90;92.00;;;;;;5114420;28;20505;-83
2021/06/18 02:58:26;;;;;;;1.50;1.00;;;23.80;92.20;;;;;;5102862;28;21102;-84
2021/06/18 03:00:59;;;;;;;1.50;0.90;;;23.80;91.90;;;;;;5101310;27;20895;-82
2021/06/18 03:03:30;;;;;;;1.50;0.90;;;23.80;92.10;;;;;;5129053;27;20479;-82
2021/06/18 03:06:03;;;;;;;1.50;0.90;;;23.80;92.70;;;;;;5105567;27;20459;-83
2021/06/18 03:08:35;;;;;;;1.50;0.90;;;23.70;92.70;;;;;;5125528;27;20472;-83
2021/06/18 03:11:03;;;;;;;1.50;0.90;;;23.70;92.70;;;;;;5106240;27;20827;-83
2021/06/18 03:13:34;;;;;;;1.50;0.90;;;23.70;93.30;;;;;;5124002;27;20547;-83
2021/06/18 03:16:04;;;;;;;1.50;0.90;;;23.70;92.60;;;;;;5105555;27;20459;-83
2021/06/18 03:18:33;;;;;;;1.50;0.90;;;23.70;94.10;;;;;;5124398;27;20574;-83
2021/06/18 03:21:01;;;;;;;1.50;0.90;;;23.70;94.10;;;;;;5101762;28;20464;-83
2021/06/18 03:23:30;;;;;;;1.47;0.90;;;23.70;93.70;;;;;;5120282;27;20486;-84
2021/06/18 03:25:58;;;;;;;1.50;0.90;;;23.70;93.50;;;;;;5105223;27;20523;-84
2021/06/18 03:28:27;;;;;;;1.50;0.90;;;23.70;92.60;;;;;;5127002;27;20482;-83
2021/06/18 03:30:54;;;;;;;1.43;0.83;;;23.70;92.60;;;;;;5103552;28;20467;-83
2021/06/18 03:33:24;;;;;;;1.50;0.90;;;23.70;93.10;;;;;;5115054;28;20451;-83
2021/06/18 03:35:52;;;;;;;1.50;0.90;;;23.70;93.40;;;;;;5104640;27;20512;-82
2021/06/18 03:38:20;;;;;;;1.50;0.90;;;23.80;93.70;;;;;;5128070;27;20853;-82
2021/06/18 03:40:47;;;;;;;1.47;0.90;;;23.80;93.80;;;;;;5110831;28;20973;-82
2021/06/18 03:43:15;;;;;;;1.43;0.90;;;23.80;93.80;;;;;;5114722;28;20760;-82
2021/06/18 03:45:44;;;;;;;1.50;0.90;;;23.90;94.60;;;;;;5115376;28;20460;-83
2021/06/18 03:48:13;;;;;;;1.50;0.90;;;23.90;93.70;;;;;;5117839;27;20470;-83
2021/06/18 03:50:41;;;;;;;1.50;0.93;;;23.90;92.90;;;;;;5114962;28;20456;-84
2021/06/18 03:53:09;;;;;;;1.50;0.90;;;23.90;93.70;;;;;;5117667;27;20975;-82
2021/06/18 03:55:36;;;;;;;1.50;0.90;;;24.00;93.40;;;;;;5115226;28;20456;-82
2021/06/18 03:58:05;;;;;;;1.50;0.90;;;24.00;93.80;;;;;;5102712;27;20477;-82
2021/06/18 04:00:36;;;;;;;1.47;0.90;;;24.00;93.20;;;;;;5114606;28;20471;-83
2021/06/18 04:03:04;;;;;;;1.47;0.90;;;24.00;93.30;;;;;;5103060;27;20544;-83
2021/06/18 04:05:32;;;;;;;1.47;0.90;;;24.10;93.10;;;;;;5116098;28;20462;-83
2021/06/18 04:08:02;;;;;;;1.43;0.90;;;24.10;93.00;;;;;;5120033;27;20471;-82
2021/06/18 04:10:29;;;;;;;1.50;0.90;;;24.10;93.70;;;;;;5114123;28;20987;-83
2021/06/18 04:12:56;;;;;;;1.50;0.90;;;24.10;93.80;;;;;;5116749;27;20561;-84
2021/06/18 04:15:24;;;;;;;1.50;0.90;;;24.20;92.70;;;;;;5113831;28;20546;-84
2021/06/18 04:17:51;;;;;;;1.50;0.87;;;24.20;93.60;;;;;;5102797;28;20471;-83
2021/06/18 04:20:20;;;;;;;1.47;0.90;;;24.20;92.80;;;;;;5115303;28;20857;-83
2021/06/18 04:22:49;;;;;;;1.80;1.37;;;24.20;93.40;;;;;;5107122;27;20470;-83
2021/06/18 04:25:17;;;;;;;1.50;0.90;;;24.30;92.90;;;;;;5114970;28;20490;-82
2021/06/18 04:27:44;;;;;;;1.40;0.90;;;24.30;93.60;;;;;;5101597;28;20484;-83
2021/06/18 04:30:14;;;;;;;1.50;0.90;;;24.30;93.70;;;;;;5116561;28;20490;-84
2021/06/18 04:32:41;;;;;;;1.50;0.90;;;24.30;93.50;;;;;;5123525;27;20474;-84
2021/06/18 04:35:10;;;;;;;1.50;0.90;;;24.40;93.90;;;;;;5117638;27;20536;-83
2021/06/18 04:37:38;;;;;;;1.50;0.90;;;24.50;93.00;;;;;;5116198;27;20474;-82
2021/06/18 04:40:06;;;;;;;1.47;0.90;;;24.60;93.50;;;;;;5115375;27;20475;-83
2021/06/18 04:42:35;;;;;;;1.50;0.90;;;24.70;93.50;;;;;;5103232;28;20871;-83
2021/06/18 04:45:02;;;;;;;1.50;0.90;;;24.80;93.60;;;;;;5114401;28;20476;-83
2021/06/18 04:47:29;;;;;;;1.50;0.90;;;24.90;93.30;;;;;;5101460;28;20480;-83
2021/06/18 04:49:55;;;;;;;1.50;0.90;;;25.00;92.80;;;;;;5112920;28;20529;-82
2021/06/18 04:52:22;;;;;;;1.50;0.90;;;25.20;92.50;;;;;;5115876;27;20471;-83
2021/06/18 04:54:55;;;;;;;1.50;0.90;;;25.30;92.00;;;;;;5117824;28;20459;-85
2021/06/18 04:57:22;;;;;;;1.50;0.90;;;25.30;92.10;;;;;;5116662;27;20470;-84
2021/06/18 04:59:50;;;;;;;1.50;0.80;;;25.40;92.20;;;;;;5117230;28;20552;-85
2021/06/18 05:02:17;;;;;;;1.50;0.90;;;25.50;91.90;;;;;;5115425;27;20571;-83
2021/06/18 05:04:44;;;;;;;1.40;0.87;;;25.70;91.30;;;;;;5120875;27;21001;-82
2021/06/18 05:07:11;;;;;;;1.50;0.90;;;25.80;90.60;;;;;;5104809;28;21041;-81
2021/06/18 05:09:38;;;;;;;1.47;0.90;;;25.90;91.30;;;;;;5120248;28;20498;-83
2021/06/18 05:12:05;;;;;;;1.50;0.90;;;26.00;90.60;;;;;;5115782;27;20478;-82
2021/06/18 05:14:32;;;;;;;1.50;0.90;;;26.10;90.00;;;;;;5117930;27;20483;-83
2021/06/18 05:17:00;;;;;;;1.50;0.90;;;26.30;89.70;;;;;;5115272;27;20479;-82
2021/06/18 05:19:27;;;;;;;1.50;0.90;;;26.50;89.60;;;;;;5122351;27;20566;-84
2021/06/18 05:21:54;;;;;;;1.50;0.90;;;26.60;88.80;;;;;;5103666;28;20482;-83
2021/06/18 05:24:21;;;;;;;1.50;0.80;;;26.60;88.60;;;;;;5117177;28;20513;-83
2021/06/18 05:26:47;;;;;;;1.50;0.80;;;26.70;88.20;;;;;;5113952;27;20526;-82
2021/06/18 05:29:14;;;;;;;1.50;0.80;;;26.90;88.20;;;;;;5118239;27;20494;-82
2021/06/18 05:31:41;;;;;;;1.50;1.03;;;27.00;87.90;;;;;;5108272;27;20587;-82
2021/06/18 05:34:09;;;;;;;1.43;0.80;;;27.10;87.90;;;;;;5118008;27;20459;-81
2021/06/18 05:36:36;;;;;;;1.50;0.87;;;27.30;87.50;;;;;;5108659;27;20961;-83
2021/06/18 05:39:05;;;;;;;1.50;0.90;;;27.40;87.70;;;;;;5120547;27;20495;-82
2021/06/18 05:41:32;;;;;;;1.50;0.90;;;27.70;86.50;;;;;;5107751;27;20478;-82
2021/06/18 05:43:59;;;;;;;1.50;0.90;;;27.80;86.00;;;;;;5120779;27;20483;-82
2021/06/18 05:46:26;;;;;;;1.50;0.87;;;28.00;85.90;;;;;;5100561;28;20895;-83
2021/06/18 05:48:53;;;;;;;1.50;0.90;;;28.00;85.40;;;;;;5113900;27;20478;-83
2021/06/18 05:51:21;;;;;;;1.50;0.90;;;28.00;85.30;;;;;;5105439;27;20470;-84
2021/06/18 05:53:48;;;;;;;1.50;0.90;;;28.10;85.20;;;;;;5125306;27;20470;-83
2021/06/18 05:56:15;;;;;;;1.50;0.80;;;28.30;85.00;;;;;;5105984;27;20672;-83
2021/06/18 05:58:42;;;;;;;1.47;0.80;;;28.40;84.80;;;;;;5128766;27;20490;-84
2021/06/18 06:01:09;;;;;;;1.50;0.80;;;28.60;83.50;;;;;;5104996;27;20504;-83
2021/06/18 06:03:36;;;;;;;1.50;0.90;;;28.80;83.40;;;;;;5112437;28;20455;-81
2021/06/18 06:06:05;;;;;;;1.47;0.90;;;29.00;83.10;;;;;;5106531;28;20785;-84
2021/06/18 06:08:34;;;;;;;1.50;0.90;;;29.10;82.70;;;;;;5113774;28;20482;-82
2021/06/18 06:11:00;;;;;;;1.50;0.80;;;29.30;82.40;;;;;;5105660;27;20924;-83
2021/06/18 06:13:27;;;;;;;1.67;1.30;;;29.50;81.90;;;;;;5116926;27;20465;-81
2021/06/18 06:15:54;;;;;;;1.50;0.80;;;29.60;81.70;;;;;;5107358;27;20488;-82
2021/06/18 06:18:21;;;;;;;1.50;0.80;;;29.80;81.20;;;;;;5127642;27;20478;-82
2021/06/18 06:20:49;;;;;;;1.50;0.80;;;29.80;80.70;;;;;;5106122;27;20466;-83
2021/06/18 06:23:17;;;;;;;1.50;1.00;;;30.00;80.30;;;;;;5127209;27;20456;-82
2021/06/18 06:25:45;;;;;;;1.50;0.90;;;30.10;79.90;;;;;;5110232;28;20483;-83
2021/06/18 06:28:12;;;;;;;1.50;0.90;;;30.10;80.10;;;;;;5099809;28;20466;-83
2021/06/18 06:30:39;;;;;;;1.50;0.80;;;30.20;80.20;;;;;;5120923;28;20514;-83
2021/06/18 06:33:06;;;;;;;1.47;0.80;;;30.40;79.70;;;;;;5102505;28;20515;-82
2021/06/18 06:35:33;;;;;;;1.50;0.90;;;30.50;79.20;;;;;;5117523;28;20455;-82
2021/06/18 06:38:00;;;;;;;1.50;0.80;;;30.70;79.30;;;;;;5103053;28;20484;-83
2021/06/18 06:40:27;;;;;;;1.50;0.80;;;30.80;78.50;;;;;;5115962;28;20473;-83
2021/06/18 06:42:55;;;;;;;1.50;0.80;;;31.00;78.00;;;;;;5123310;27;20466;-83
2021/06/18 06:45:22;;;;;;;1.50;0.80;;;31.00;78.40;;;;;;5120066;28;20487;-82
2021/06/18 06:47:50;;;;;;;1.50;0.80;;;31.10;78.40;;;;;;5124779;27;20995;-82
2021/06/18 06:50:22;;;;;;;1.50;0.80;;;31.20;78.20;;;;;;5123014;27;20479;-82
2021/06/18 06:52:49;;;;;;;1.50;0.80;;;31.30;78.30;;;;;;5114378;27;20471;-80
2021/06/18 06:55:16;;;;;;;1.50;0.80;;;31.40;77.50;;;;;;5118685;28;20455;-83
2021/06/18 06:57:43;;;;;;;1.50;0.80;;;31.50;76.40;;;;;;5109432;27;20483;-82
2021/06/18 07:00:12;;;;;;;1.47;0.80;;;31.70;76.90;;;;;;5121939;28;20483;-83
2021/06/18 07:02:39;;;;;;;1.47;0.80;;;31.80;75.90;;;;;;5117727;27;20482;-83
2021/06/18 07:05:07;;;;;;;1.43;0.80;;;31.90;75.30;;;;;;5118035;27;20483;-83
2021/06/18 07:07:34;;;;;;;1.43;0.80;;;32.00;75.60;;;;;;5120402;27;21087;-83
2021/06/18 07:10:01;;;;;;;1.47;0.80;;;32.20;75.50;;;;;;5118789;27;20228;-83
2021/06/18 07:12:28;;;;;;;1.50;0.80;;;32.40;74.10;;;;;;5118481;27;20297;-82
2021/06/18 07:14:55;;;;;;;1.47;0.80;;;32.50;75.20;;;;;;5117472;27;20346;-82
2021/06/18 07:17:24;;;;;;;1.47;0.80;;;32.40;73.90;;;;;;5118100;27;20474;-83
2021/06/18 07:19:52;;;;;;;1.47;0.80;;;32.30;75.00;;;;;;5121646;27;20306;-84
2021/06/18 07:22:21;;;;;;;1.47;0.80;;;32.10;74.60;;;;;;5117934;27;20726;-82
2021/06/18 07:24:48;;;;;;;1.50;0.80;;;31.90;75.60;;;;;;5120724;27;20262;-81
2021/06/18 07:27:15;;;;;;;1.47;0.80;;;31.70;75.50;;;;;;5106596;28;20221;-82
2021/06/18 07:29:43;;;;;;;1.43;0.80;;;31.70;75.90;;;;;;5118015;27;20243;-82
2021/06/18 07:32:11;;;;;;;1.70;1.47;;;31.40;76.30;;;;;;5121082;27;20557;-82
2021/06/18 07:34:39;;;;;;;1.47;0.80;;;31.40;77.20;;;;;;5127160;27;20644;-84
2021/06/18 07:37:06;;;;;;;1.47;0.90;;;31.50;76.40;;;;;;5109134;27;20481;-82
2021/06/18 07:39:34;;;;;;;1.43;0.80;;;31.60;75.90;;;;;;5120646;27;20478;-83
2021/06/18 07:42:01;;;;;;;1.50;0.80;;;31.60;75.70;;;;;;5104633;27;20481;-82
2021/06/18 07:44:28;;;;;;;1.43;0.80;;;31.70;75.40;;;;;;5121756;27;20490;-82
2021/06/18 07:46:54;;;;;;;1.50;1.00;;;31.70;76.10;;;;;;5110893;27;20482;-82
2021/06/18 07:49:21;;;;;;;1.47;0.80;;;31.70;76.50;;;;;;5111186;28;20542;-82
2021/06/18 07:51:50;;;;;;;1.40;0.80;;;31.40;76.70;;;;;;5112836;27;20475;-81
2021/06/18 07:54:16;;;;;;;1.47;0.80;;;31.30;76.30;;;;;;5121625;27;20491;-81
2021/06/18 07:56:45;;;;;;;1.43;0.80;;;31.20;76.60;;;;;;5106627;27;20478;-82
2021/06/18 07:59:14;;;;;;;2.00;1.63;;;31.10;77.20;;;;;;5120785;27;20506;-84
2021/06/18 08:01:50;;;;;;;1.60;1.17;;;31.00;77.90;;;;;;5115757;27;20252;-81
2021/06/18 08:04:22;;;;;;;1.43;0.80;;;31.00;77.20;;;;;;5125189;27;20453;-84
2021/06/18 08:06:53;;;;;;;1.47;0.80;;;30.90;77.60;;;;;;5104559;27;20484;-85
2021/06/18 08:09:22;;;;;;;1.50;1.10;;;30.90;76.90;;;;;;5113732;27;20475;-83
2021/06/18 08:11:54;;;;;;;1.50;0.90;;;30.80;77.40;;;;;;5110078;27;20466;-85
2021/06/18 08:14:24;;;;;;;1.50;0.87;;;30.80;76.70;;;;;;5116719;27;20493;-82
2021/06/18 08:16:52;;;;;;;1.47;0.80;;;30.70;78.10;;;;;;5103826;27;20494;-83
2021/06/18 08:19:27;;;;;;;1.50;0.90;;;30.60;77.30;;;;;;5137918;27;20485;-83
2021/06/18 08:22:17;;;;;;;1.50;0.80;;;30.50;77.70;;;;;;5109269;27;20470;-85
2021/06/18 08:25:00;;;;;;;1.47;0.80;;;30.40;77.50;;;;;;5127758;27;20743;-84
2021/06/18 08:27:31;;;;;;;1.43;0.80;;;30.30;78.50;;;;;;5119225;27;20908;-84
2021/06/18 08:30:06;;;;;;;1.47;0.80;;;30.20;79.10;;;;;;5116977;28;20502;-86
2021/06/18 08:32:34;;;;;;;1.47;0.80;;;30.10;78.90;;;;;;5114739;27;20883;-84
2021/06/18 08:35:01;;;;;;;1.43;0.80;;;30.00;78.60;;;;;;5115473;28;20654;-83
2021/06/18 08:37:29;;;;;;;1.50;0.80;;;30.00;79.30;;;;;;5107422;28;21318;-82
2021/06/18 08:39:57;;;;;;;1.47;0.80;;;30.20;79.70;;;;;;5110318;28;20483;-82
2021/06/18 08:42:25;;;;;;;1.50;0.80;;;30.40;79.90;;;;;;5118683;27;20482;-83
2021/06/18 08:44:52;;;;;;;1.43;0.80;;;30.60;78.50;;;;;;5110415;28;20533;-82
2021/06/18 08:47:19;;;;;;;1.50;0.80;;;30.90;77.40;;;;;;5102704;27;21047;-85
2021/06/18 08:49:46;;;;;;;1.50;0.80;;;31.20;78.10;;;;;;5115924;28;21072;-83
2021/06/18 08:52:13;;;;;;;1.50;0.80;;;31.30;75.70;;;;;;5118934;27;20577;-84
2021/06/18 08:54:45;;;;;;;1.47;0.80;;;31.40;76.80;;;;;;5120882;28;20500;-84
2021/06/18 08:57:14;;;;;;;1.50;0.80;;;31.40;75.80;;;;;;5107727;27;20490;-84
2021/06/18 08:59:42;;;;;;;1.47;0.80;;;31.30;77.30;;;;;;5119901;28;20227;-79
2021/06/18 09:02:10;;;;;;;1.43;0.80;;;31.10;77.50;;;;;;5106237;28;20233;-82
2021/06/18 09:05:03;;;;;;;1.43;0.80;;;31.00;78.00;;;;;;5114803;28;20494;-82
2021/06/18 09:07:48;;;;;;;1.47;0.80;;;31.00;77.40;;;;;;5118756;27;20485;-84
2021/06/18 09:10:25;;;;;;;1.43;0.80;;;30.90;76.70;;;;;;5119509;28;20502;-83
2021/06/18 09:13:14;;;;;;;1.60;1.10;;;30.80;76.90;;;;;;5103792;27;20917;-82
2021/06/18 09:15:44;;;;;;;1.47;0.90;;;30.80;76.60;;;;;;5116190;28;20447;-83
2021/06/18 09:18:31;;;;;;;1.43;0.80;;;30.80;76.70;;;;;;5110684;28;21234;-82
2021/06/18 09:21:18;;;;;;;1.43;0.80;;;30.80;76.70;;;;;;5099774;28;20458;-84
2021/06/18 09:23:47;;;;;;;1.43;0.80;;;30.80;75.70;;;;;;5109450;28;20507;-84
2021/06/18 09:26:25;;;;;;;1.43;0.80;;;30.80;76.00;;;;;;5100676;28;20502;-83
2021/06/18 09:29:10;;;;;;;1.47;0.80;;;31.10;75.80;;;;;;5112795;28;20890;-82
2021/06/18 09:31:40;;;;;;;1.47;0.80;;;31.50;74.30;;;;;;5113402;27;20552;-83
2021/06/18 09:34:09;;;;;;;1.47;0.80;;;32.00;72.30;;;;;;5121695;28;20193;-83
2021/06/18 09:36:38;;;;;;;1.50;1.00;;;32.20;70.40;;;;;;5111905;27;20292;-83
2021/06/18 09:39:09;;;;;;;1.50;0.80;;;32.30;71.40;;;;;;5124537;27;20225;-83
2021/06/18 09:41:40;;;;;;;1.40;0.80;;;32.20;71.60;;;;;;5109461;28;20308;-86
2021/06/18 09:44:09;;;;;;;3.43;2.30;;;32.10;72.10;;;;;;5122039;28;20209;-83
2021/06/18 09:46:44;;;;;;;1.43;0.80;;;32.10;71.70;;;;;;5111741;27;20225;-85
2021/06/18 09:49:14;;;;;;;1.50;0.90;;;32.20;71.90;;;;;;5124203;28;20225;-83
2021/06/18 09:51:55;;;;;;;1.50;0.80;;;32.30;71.30;;;;;;5108068;27;20762;-85
2021/06/18 09:54:22;;;;;;;1.43;0.80;;;32.30;70.70;;;;;;5119846;28;20197;-85
2021/06/18 09:56:51;;;;;;;1.50;0.80;;;32.30;70.20;;;;;;5106044;27;20330;-83
2021/06/18 09:59:22;;;;;;;1.47;0.80;;;32.40;68.40;;;;;;5115173;27;20335;-86
2021/06/18 10:01:57;;;;;;;1.50;1.07;;;32.60;69.70;;;;;;5108423;27;20279;-84
2021/06/18 10:04:25;;;;;;;1.47;0.80;;;32.60;68.70;;;;;;5116970;28;20193;-84
2021/06/18 10:06:52;;;;;;;1.50;0.80;;;32.80;68.70;;;;;;5112600;27;20233;-84
2021/06/18 10:09:19;;;;;;;1.47;0.80;;;32.70;69.50;;;;;;5120730;27;20320;-86
2021/06/18 10:11:46;;;;;;;1.87;1.10;;;32.70;69.30;;;;;;5115540;27;20416;-87
2021/06/18 10:14:15;;;;;;;1.50;0.80;;;32.70;68.70;;;;;;5122053;27;20197;-84
2021/06/18 10:16:43;;;;;;;1.47;0.80;;;32.70;64.70;;;;;;5111079;27;20315;-86
2021/06/18 10:19:11;;;;;;;1.50;0.80;;;32.80;64.80;;;;;;5121951;27;20584;-83
2021/06/18 10:21:49;;;;;;;1.50;0.80;;;32.80;63.70;;;;;;5112832;27;20292;-86
2021/06/18 10:24:17;;;;;;;1.40;0.80;;;33.00;64.20;;;;;;5117897;27;20692;-84
2021/06/18 10:26:50;;;;;;;1.50;0.80;;;33.30;64.50;;;;;;5104620;28;20310;-84
2021/06/18 10:29:32;;;;;;;1.50;0.80;;;33.70;64.70;;;;;;5112888;28;20498;-83
2021/06/18 10:32:17;;;;;;;1.50;0.90;;;33.90;63.90;;;;;;5099273;28;20353;-83
2021/06/18 10:34:44;;;;;;;1.45;0.80;;;34.10;64.40;;;;;;5112214;28;20209;-82
2021/06/18 10:37:20;;;;;;;1.42;0.80;;;34.40;64.80;;;;;;5114899;27;20228;-83
2021/06/18 10:39:52;;;;;;;1.40;0.80;;;34.60;64.10;;;;;;5117760;27;20221;-84
2021/06/18 10:42:19;;;;;;;1.40;0.80;;;34.80;63.70;;;;;;5116972;27;20377;-86
2021/06/18 10:44:49;;;;;;;1.40;0.80;;;35.00;64.00;;;;;;5119736;27;20217;-82
2021/06/18 10:47:44;;;;;;;1.40;0.80;;;35.10;62.00;;;;;;5107580;27;20237;-86
2021/06/18 10:50:15;;;;;;;1.45;0.80;;;35.40;59.40;;;;;;5111941;28;20710;-83
2021/06/18 10:52:46;;;;;;;1.45;0.80;;;35.70;61.40;;;;;;5118871;27;20717;-83
2021/06/18 10:55:14;;;;;;;1.40;0.80;;;35.80;58.30;;;;;;5115320;28;20217;-87
2021/06/18 10:57:54;;;;;;;1.42;0.80;;;35.90;58.40;;;;;;5120567;27;20251;-82
2021/06/18 11:00:27;;;;;;;1.45;0.80;;;35.80;59.00;;;;;;5117415;28;20221;-82
2021/06/18 11:02:54;;;;;;;1.40;0.80;;;35.90;59.40;;;;;;5116334;27;20224;-85
2021/06/18 11:05:36;;;;;;;1.45;0.80;;;36.00;57.90;;;;;;5114311;28;20357;-84
2021/06/18 11:08:26;;;;;;;1.42;0.80;;;36.10;59.30;;;;;;5119598;27;20746;-85
2021/06/18 11:11:30;;;;;;;1.42;0.80;;;36.20;59.20;;;;;;5103614;28;20525;-82
2021/06/18 11:17:28;;;;;;;1.42;0.80;;;36.40;59.10;;;;;;5109945;27;20696;-84
2021/06/18 11:20:53;;;;;;;1.50;0.90;;;36.30;59.60;;;;;;5117897;27;20228;-84
2021/06/18 11:23:22;;;;;;;1.45;0.90;;;36.50;59.00;;;;;;5102777;28;20245;-86
2021/06/18 11:28:52;;;;;;;1.40;0.80;;;36.60;56.20;;;;;;5121522;27;20229;-84
2021/06/18 11:31:37;;;;;;;1.50;0.93;;;36.50;58.30;;;;;;5100356;28;20280;-82
2021/06/18 11:34:06;;;;;;;1.40;0.80;;;36.50;58.70;;;;;;5104523;28;20209;-82
2021/06/18 11:36:42;;;;;;;1.40;0.80;;;36.50;58.60;;;;;;5100367;28;20229;-82
2021/06/18 11:39:18;;;;;;;1.40;0.80;;;36.50;59.70;;;;;;5104352;28;20231;-83
2021/06/18 11:41:49;;;;;;;1.42;0.80;;;36.70;58.80;;;;;;5102497;28;20252;-85
2021/06/18 11:44:20;;;;;;;1.42;0.80;;;36.80;58.10;;;;;;5112833;28;20558;-83
2021/06/18 11:46:51;;;;;;;1.40;0.80;;;36.80;59.50;;;;;;5111263;27;20236;-84
2021/06/18 11:49:21;;;;;;;1.40;0.88;;;36.90;58.00;;;;;;5112527;27;20766;-86
2021/06/18 11:51:49;;;;;;;1.40;0.80;;;37.00;57.60;;;;;;5105559;27;20294;-83
2021/06/18 11:54:29;;;;;;;1.40;0.80;;;36.80;58.10;;;;;;5118276;27;20206;-84
2021/06/18 11:57:03;;;;;;;1.60;1.10;;;36.90;57.30;;;;;;5097731;28;20486;-86
2021/06/18 11:59:30;;;;;;;4.28;2.05;;;36.90;57.40;;;;;;5109021;28;20220;-86
2021/06/18 12:01:57;;;;;;;1.40;0.80;;;36.80;57.70;;;;;;5111568;27;20231;-84
2021/06/18 12:04:27;;;;;;;1.73;1.55;;;36.90;57.80;;;;;;5117272;27;20345;-83
2021/06/18 12:06:55;;;;;;;1.40;0.80;;;37.00;58.20;;;;;;5102091;28;20229;-84
2021/06/18 12:09:23;;;;;;;1.40;0.80;;;37.00;56.30;;;;;;5112682;27;20225;-86
2021/06/18 12:12:00;;;;;;;1.40;0.80;;;36.90;57.50;;;;;;5096214;28;20255;-86
2021/06/18 12:14:36;;;;;;;1.85;1.67;;;36.90;57.60;;;;;;5113472;27;20237;-87
2021/06/18 12:17:03;;;;;;;1.40;0.80;;;36.90;56.90;;;;;;5098347;27;20487;-84
2021/06/18 12:19:34;;;;;;;1.40;0.80;;;37.10;56.10;;;;;;5114291;27;20281;-88
2021/06/18 12:22:04;;;;;;;1.70;1.00;;;37.50;56.20;;;;;;5102858;27;20237;-84
2021/06/18 12:24:34;;;;;;;1.40;0.80;;;37.70;57.10;;;;;;5111337;28;20233;-84
2021/06/18 12:27:06;;;;;;;1.40;0.80;;;38.00;55.50;;;;;;5107720;27;20240;-85
2021/06/18 12:29:33;;;;;;;1.40;0.80;;;38.20;53.80;;;;;;5110298;27;20784;-83
2021/06/18 12:32:00;;;;;;;1.40;0.80;;;38.50;56.90;;;;;;5109260;27;20254;-84
2021/06/18 12:34:28;;;;;;;1.40;0.80;;;38.70;53.70;;;;;;5116569;27;20220;-84
2021/06/18 12:37:06;;;;;;;1.40;0.80;;;38.80;52.30;;;;;;5108427;27;20255;-85
2021/06/18 12:39:52;;;;;;;1.40;0.80;;;38.70;52.20;;;;;;5114378;27;20490;-83
2021/06/18 12:42:24;;;;;;;1.40;0.80;;;38.80;53.70;;;;;;5111370;27;20227;-84
2021/06/18 12:45:13;;;;;;;1.40;0.80;;;39.00;52.20;;;;;;5107354;28;20217;-83
2021/06/18 12:47:41;;;;;;;1.38;0.80;;;39.20;51.50;;;;;;5114324;27;20235;-82
2021/06/18 12:50:31;;;;;;;3.47;2.22;;;39.40;51.40;;;;;;5110416;28;20225;-84
2021/06/18 12:53:01;;;;;;;1.35;0.80;;;39.30;50.70;;;;;;5099939;28;20600;-83
2021/06/18 12:55:30;;;;;;;1.35;0.80;;;39.30;52.40;;;;;;5109534;28;20269;-85
2021/06/18 12:58:07;;;;;;;1.40;0.80;;;39.30;50.60;;;;;;5098705;28;20275;-83
2021/06/18 13:00:42;;;;;;;1.40;0.80;;;39.40;50.80;;;;;;5111963;28;20590;-86
2021/06/18 13:03:09;;;;;;;1.40;0.80;;;39.40;49.70;;;;;;5098134;28;20235;-84
2021/06/18 13:05:37;;;;;;;1.40;0.80;;;39.50;51.50;;;;;;5108608;28;20262;-85
2021/06/18 13:08:18;;;;;;;1.40;0.80;;;39.70;50.50;;;;;;5113691;27;20895;-85
2021/06/18 13:10:45;;;;;;;1.40;0.80;;;39.80;49.40;;;;;;5109355;28;20570;-83